Time;durP1;ratioP1;P1;durP2;ratioP2;P2;SDS_P1;SDS_P2;PMS_P1;PMS_P2;Temp;Humidity;BMP_temperature;BMP_pressure;BME280_temperature;BME280_humidity;BME280_pressure;Samples;Min_cycle;Max_cycle;Signal;HPM_P1;HPM_P2
2021/03/11 00:01:25;;;;;;;;;;;;;;;5.59;100.00;99842.06;5024421;28;19925;-79
2021/03/11 00:03:51;;;;;;;;;;;;;;;5.56;100.00;99829.88;5024166;28;20291;-84
2021/03/11 00:06:16;;;;;;;;;;;;;;;5.51;100.00;99834.84;5024085;28;19965;-79
2021/03/11 00:08:41;;;;;;;;;;;;;;;5.50;100.00;99822.53;5023023;28;19917;-81
2021/03/11 00:11:06;;;;;;;;;;;;;;;5.48;100.00;99802.38;5030224;28;19925;-82
2021/03/11 00:13:31;;;;;;;;;;;;;;;5.46;100.00;99810.50;5025498;28;19925;-81
2021/03/11 00:15:57;;;;;;;;;;;;;;;5.44;100.00;99817.84;5036716;28;19921;-83
2021/03/11 00:18:22;;;;;;;;;;;;;;;5.42;100.00;99819.81;5023588;28;19917;-82
2021/03/11 00:20:47;;;;;;;;;;;;;;;5.42;100.00;99812.66;5024426;28;19925;-81
2021/03/11 00:23:13;;;;;;;;;;;;;;;5.42;100.00;99803.84;5036097;28;19921;-81
2021/03/11 00:25:38;;;;;;;;;;;;;;;5.41;100.00;99807.50;5024801;28;19921;-79
2021/03/11 00:28:04;;;;;;;;;;;;;;;5.41;100.00;99807.50;5026735;28;19928;-83
2021/03/11 00:30:30;;;;;;;;;;;;;;;5.38;100.00;99797.13;5020980;28;19918;-80
2021/03/11 00:32:55;;;;;;;;;;;;;;;5.36;100.00;99777.84;5024620;28;20027;-81
2021/03/11 00:35:21;;;;;;;;;;;;;;;5.36;100.00;99757.41;5024706;28;19921;-80
2021/03/11 00:37:47;;;;;;;;;;;;;;;5.35;100.00;99728.28;5023316;28;19995;-83
2021/03/11 00:40:15;;;;;;;;;;;;;;;5.33;100.00;99739.09;5028267;28;19924;-82
2021/03/11 00:42:46;;;;;;;;;;;;;;;5.32;100.00;99729.44;5028381;28;19918;-82
2021/03/11 00:45:12;;;;;;;;;;;;;;;5.33;100.00;99730.28;5043035;28;19975;-81
2021/03/11 00:47:38;;;;;;;;;;;;;;;5.34;100.00;99734.59;5026333;28;19925;-83
2021/03/11 00:50:04;;;;;;;;;;;;;;;5.32;100.00;99716.16;5027809;28;19917;-81
2021/03/11 00:52:30;;;;;;;;;;;;;;;5.32;100.00;99729.44;5025017;28;19993;-85
2021/03/11 00:54:55;;;;;;;;;;;;;;;5.33;100.00;99716.97;5040387;28;20012;-80
2021/03/11 00:57:20;;;;;;;;;;;;;;;5.35;100.00;99712.31;5023103;28;20005;-80
2021/03/11 00:59:45;;;;;;;;;;;;;;;5.37;100.00;99719.16;5023732;28;19931;-84
2021/03/11 01:02:11;;;;;;;;;;;;;;;5.38;100.00;99712.84;5024690;28;19930;-80
2021/03/11 01:04:38;;;;;;;;;;;;;;;5.38;100.00;99712.00;5024651;28;19984;-84
2021/03/11 01:07:04;;;;;;;;;;;;;;;5.38;100.00;99680.06;5026422;28;19917;-83
2021/03/11 01:09:31;;;;;;;;;;;;;;;5.38;100.00;99685.41;5024338;28;19917;-82
2021/03/11 01:11:57;;;;;;;;;;;;;;;5.38;100.00;99680.06;5025181;28;20723;-84
2021/03/11 01:14:23;;;;;;;;;;;;;;;5.38;100.00;99667.63;5025215;28;19928;-84
2021/03/11 01:16:49;;;;;;;;;;;;;;;5.38;100.00;99638.38;5027050;28;19991;-82
2021/03/11 01:19:14;;;;;;;;;;;;;;;5.39;100.00;99640.03;5025779;28;20019;-84
2021/03/11 01:21:40;;;;;;;;;;;;;;;5.41;100.00;99642.53;5023035;28;19925;-79
2021/03/11 01:24:05;;;;;;;;;;;;;;;5.41;100.00;99639.88;5031373;28;19918;-82
2021/03/11 01:26:30;;;;;;;;;;;;;;;5.42;100.00;99628.22;5035004;28;19929;-82
2021/03/11 01:28:56;;;;;;;;;;;;;;;5.41;100.00;99624.75;5038621;28;19925;-82
2021/03/11 01:31:22;;;;;;;;;;;;;;;5.41;100.00;99629.25;5025531;28;19921;-82
2021/03/11 01:33:50;;;;;;;;;;;;;;;5.42;100.00;99629.06;5023667;28;19953;-83
2021/03/11 01:36:16;;;;;;;;;;;;;;;5.43;100.00;99613.94;5026289;28;19935;-83
2021/03/11 01:38:42;;;;;;;;;;;;;;;5.44;100.00;99604.97;5005560;28;19925;-84
2021/03/11 01:41:08;;;;;;;;;;;;;;;5.42;100.00;99605.13;5023818;28;19917;-79
2021/03/11 01:43:33;;;;;;;;;;;;;;;5.43;100.00;99595.31;5036989;28;20682;-83
2021/03/11 01:45:59;;;;;;;;;;;;;;;5.44;100.00;99591.66;5020915;28;19927;-84
2021/03/11 01:48:24;;;;;;;;;;;;;;;5.44;100.00;99573.03;5028759;28;19963;-82
2021/03/11 01:50:49;;;;;;;;;;;;;;;5.45;100.00;99577.34;5027312;28;19924;-82
2021/03/11 01:53:14;;;;;;;;;;;;;;;5.45;100.00;99561.38;5028067;28;20342;-81
2021/03/11 01:55:40;;;;;;;;;;;;;;;5.48;100.00;99555.75;5038894;28;19928;-80
2021/03/11 01:58:06;;;;;;;;;;;;;;;5.48;100.00;99552.25;5012222;28;19925;-85
2021/03/11 02:00:32;;;;;;;;;;;;;;;5.51;100.00;99555.41;5022396;28;19953;-84
2021/03/11 02:03:00;;;;;;;;;;;;;;;5.54;100.00;99543.63;5017286;28;19924;-82
2021/03/11 02:05:25;;;;;;;;;;;;;;;5.56;100.00;99523.84;5012271;28;19926;-82
2021/03/11 02:07:53;;;;;;;;;;;;;;;5.60;100.00;99522.50;5009045;28;19983;-82
2021/03/11 02:10:22;;;;;;;;;;;;;;;5.64;100.00;99509.72;5009237;28;20276;-86
2021/03/11 02:12:53;;;;;;;;;;;;;;;5.68;100.00;99504.91;5022870;28;19997;-85
2021/03/11 02:15:21;;;;;;;;;;;;;;;5.72;100.00;99500.91;5019239;28;20012;-83
2021/03/11 02:17:51;;;;;;;;;;;;;;;5.75;100.00;99500.56;5023985;28;19956;-84
2021/03/11 02:20:20;;;;;;;;;;;;;;;5.79;100.00;99475.31;5023907;28;19967;-83
2021/03/11 02:22:50;;;;;;;;;;;;;;;5.84;100.00;99460.50;5025124;28;19925;-80
2021/03/11 02:25:21;;;;;;;;;;;;;;;5.91;100.00;99446.53;5017810;28;19947;-83
2021/03/11 02:27:57;;;;;;;;;;;;;;;5.97;100.00;99448.53;5039858;28;19921;-81
2021/03/11 02:30:24;;;;;;;;;;;;;;;6.01;100.00;99450.72;5025251;28;19917;-83
2021/03/11 02:32:51;;;;;;;;;;;;;;;6.04;100.00;99436.19;5009157;28;19956;-83
2021/03/11 02:35:16;;;;;;;;;;;;;;;6.04;100.00;99431.72;5021980;28;20439;-83
2021/03/11 02:37:43;;;;;;;;;;;;;;;6.04;100.00;99426.41;5023159;28;19925;-83
2021/03/11 02:40:15;;;;;;;;;;;;;;;6.06;100.00;99426.22;5025367;28;20433;-85
2021/03/11 02:42:41;;;;;;;;;;;;;;;6.08;100.00;99410.91;5021252;28;19949;-84
2021/03/11 02:45:07;;;;;;;;;;;;;;;6.11;100.00;99410.56;5005261;28;19976;-85
2021/03/11 02:47:33;;;;;;;;;;;;;;;6.15;100.00;99411.06;5021577;28;20578;-79
2021/03/11 02:49:59;;;;;;;;;;;;;;;6.19;100.00;99418.56;5021064;28;19917;-85
2021/03/11 02:52:25;;;;;;;;;;;;;;;6.22;100.00;99393.41;5021586;28;20157;-84
2021/03/11 02:54:52;;;;;;;;;;;;;;;6.26;100.00;99360.09;5021796;28;19996;-82
2021/03/11 02:57:18;;;;;;;;;;;;;;;6.31;100.00;99357.75;5024039;28;19924;-86
2021/03/11 02:59:44;;;;;;;;;;;;;;;6.33;100.00;99358.41;5021543;28;19921;-84
2021/03/11 03:02:09;;;;;;;;;;;;;;;6.36;100.00;99352.75;5024567;28;19923;-79
2021/03/11 03:04:35;;;;;;;;;;;;;;;6.38;100.00;99345.38;5043640;28;20283;-83
2021/03/11 03:07:01;;;;;;;;;;;;;;;6.40;100.00;99355.88;5029750;28;19917;-85
2021/03/11 03:09:27;;;;;;;;;;;;;;;6.42;100.00;99356.56;5029055;28;19928;-83
2021/03/11 03:11:55;;;;;;;;;;;;;;;6.43;100.00;99387.50;5023733;28;19917;-83
2021/03/11 03:14:21;;;;;;;;;;;;;;;6.42;100.00;99376.03;5020577;28;19917;-81
2021/03/11 03:16:47;;;;;;;;;;;;;;;6.43;100.00;99383.00;5019018;28;19928;-84
2021/03/11 03:19:12;;;;;;;;;;;;;;;6.46;100.00;99366.69;5027911;28;20398;-82
2021/03/11 03:21:41;;;;;;;;;;;;;;;6.46;100.00;99356.03;5008403;28;19925;-83
2021/03/11 03:24:06;;;;;;;;;;;;;;;6.48;100.00;99346.03;5028512;28;19917;-83
2021/03/11 03:26:32;;;;;;;;;;;;;;;6.51;100.00;99332.34;5028046;28;20012;-84
2021/03/11 03:28:59;;;;;;;;;;;;;;;6.53;100.00;99346.34;5035027;28;19940;-79
2021/03/11 03:31:24;;;;;;;;;;;;;;;6.57;100.00;99319.34;5016605;28;19917;-82
2021/03/11 03:33:49;;;;;;;;;;;;;;;6.59;100.00;99302.19;5022064;28;19924;-81
2021/03/11 03:36:16;;;;;;;;;;;;;;;6.61;100.00;99299.31;5038668;28;19925;-80
2021/03/11 03:38:41;;;;;;;;;;;;;;;6.64;100.00;99331.78;5036822;28;19925;-86
2021/03/11 03:41:08;;;;;;;;;;;;;;;6.70;100.00;99311.59;5021243;28;19925;-82
2021/03/11 03:43:35;;;;;;;;;;;;;;;6.72;100.00;99314.91;5024288;28;20349;-83
2021/03/11 03:46:28;;;;;;;;;;;;;;;6.73;100.00;99311.22;5024749;28;20019;-86
2021/03/11 03:48:56;;;;;;;;;;;;;;;6.76;100.00;99324.22;5013383;28;20059;-82
2021/03/11 03:51:27;;;;;;;;;;;;;;;6.79;100.00;99310.56;5009954;28;19917;-81
2021/03/11 03:54:00;;;;;;;;;;;;;;;6.80;100.00;99298.88;5008712;28;19925;-83
2021/03/11 03:56:31;;;;;;;;;;;;;;;6.85;100.00;99291.19;5000593;28;20461;-82
2021/03/11 03:58:58;;;;;;;;;;;;;;;6.88;100.00;99295.34;5005769;28;20578;-80
2021/03/11 04:01:43;;;;;;;;;;;;;;;6.87;100.00;99294.47;5005212;28;20444;-81
2021/03/11 04:04:10;;;;;;;;;;;;;;;6.90;100.00;99294.13;5026599;28;19955;-84
2021/03/11 04:06:37;;;;;;;;;;;;;;;6.93;100.00;99274.28;5040487;28;19990;-85
2021/03/11 04:09:05;;;;;;;;;;;;;;;6.96;100.00;99300.59;5022429;28;19925;-83
2021/03/11 04:11:31;;;;;;;;;;;;;;;6.97;100.00;99271.09;5025840;28;19968;-81
2021/03/11 04:13:57;;;;;;;;;;;;;;;6.99;100.00;99284.22;5011123;28;19967;-82
2021/03/11 04:16:22;;;;;;;;;;;;;;;6.99;100.00;99273.56;5026270;28;20022;-84
2021/03/11 04:18:50;;;;;;;;;;;;;;;6.99;100.00;99295.75;5023461;28;20421;-82
2021/03/11 04:21:18;;;;;;;;;;;;;;;6.97;100.00;99287.09;5027558;28;20394;-86
2021/03/11 04:23:45;;;;;;;;;;;;;;;6.93;100.00;99283.13;5025839;28;19917;-81
2021/03/11 04:26:10;;;;;;;;;;;;;;;6.91;100.00;99287.81;5025531;28;19922;-83
2021/03/11 04:28:36;;;;;;;;;;;;;;;6.89;100.00;99281.81;5021457;28;20343;-84
2021/03/11 04:31:02;;;;;;;;;;;;;;;6.86;100.00;99276.84;5023257;28;19917;-82
2021/03/11 04:33:30;;;;;;;;;;;;;;;6.84;100.00;99294.00;5025703;28;19951;-83
2021/03/11 04:35:56;;;;;;;;;;;;;;;6.85;100.00;99290.34;5012315;28;20083;-79
2021/03/11 04:38:22;;;;;;;;;;;;;;;6.83;100.00;99282.53;5016328;28;19925;-81
2021/03/11 04:40:47;;;;;;;;;;;;;;;6.81;100.00;99289.88;5010291;28;19974;-84
2021/03/11 04:43:13;;;;;;;;;;;;;;;6.81;100.00;99255.19;5031157;28;19944;-82
2021/03/11 04:45:39;;;;;;;;;;;;;;;6.81;100.00;99249.88;5034737;28;19925;-84
2021/03/11 04:48:05;;;;;;;;;;;;;;;6.79;100.00;99262.56;5024446;28;19924;-84
2021/03/11 04:50:32;;;;;;;;;;;;;;;6.81;100.00;99252.53;5020974;28;19955;-86
2021/03/11 04:52:58;;;;;;;;;;;;;;;6.79;100.00;99246.56;5024882;28;20371;-83
2021/03/11 04:55:23;;;;;;;;;;;;;;;6.79;100.00;99238.56;5001732;28;19924;-85
2021/03/11 04:57:49;;;;;;;;;;;;;;;6.78;100.00;99247.56;4992556;28;19921;-80
2021/03/11 05:00:15;;;;;;;;;;;;;;;6.76;100.00;99234.41;5003308;28;19928;-83
2021/03/11 05:02:44;;;;;;;;;;;;;;;6.77;100.00;99240.56;5003662;28;19928;-84
2021/03/11 05:05:09;;;;;;;;;;;;;;;6.78;100.00;99236.91;5007560;28;20411;-87
2021/03/11 05:07:35;;;;;;;;;;;;;;;6.77;100.00;99224.59;5034182;28;19917;-82
2021/03/11 05:10:00;;;;;;;;;;;;;;;6.76;100.00;99210.44;5006950;28;20416;-84
2021/03/11 05:12:25;;;;;;;;;;;;;;;6.77;100.00;99204.06;5023614;28;19925;-80
2021/03/11 05:14:52;;;;;;;;;;;;;;;6.78;100.00;99180.91;5025413;28;20320;-84
2021/03/11 05:17:19;;;;;;;;;;;;;;;6.78;100.00;99202.22;5029594;28;19932;-85
2021/03/11 05:19:44;;;;;;;;;;;;;;;6.81;100.00;99199.22;5021545;28;20395;-84
2021/03/11 05:22:09;;;;;;;;;;;;;;;6.80;100.00;99197.56;5026312;28;19929;-80
2021/03/11 05:24:35;;;;;;;;;;;;;;;6.83;100.00;99204.38;5023095;28;19925;-83
2021/03/11 05:27:00;;;;;;;;;;;;;;;6.83;100.00;99183.03;4997189;28;19932;-85
2021/03/11 05:29:25;;;;;;;;;;;;;;;6.84;100.00;99182.84;5018643;28;19996;-82
2021/03/11 05:31:50;;;;;;;;;;;;;;;6.87;100.00;99187.00;5010521;28;19917;-82
2021/03/11 05:34:16;;;;;;;;;;;;;;;6.89;100.00;99188.47;5033453;28;19922;-84
2021/03/11 05:36:41;;;;;;;;;;;;;;;6.91;100.00;99178.47;5032288;28;19968;-84
2021/03/11 05:39:08;;;;;;;;;;;;;;;6.94;100.00;99167.44;4999622;28;19976;-83
2021/03/11 05:41:37;;;;;;;;;;;;;;;6.97;100.00;99177.75;5020379;28;20118;-84
2021/03/11 05:44:03;;;;;;;;;;;;;;;6.98;100.00;99168.72;5041959;28;19918;-85
2021/03/11 05:46:28;;;;;;;;;;;;;;;7.03;100.00;99167.38;5016720;28;19986;-81
2021/03/11 05:48:55;;;;;;;;;;;;;;;7.07;100.00;99180.16;5026413;28;20008;-81
2021/03/11 05:51:21;;;;;;;;;;;;;;;7.10;100.00;99181.63;5027922;28;19923;-84
2021/03/11 05:53:46;;;;;;;;;;;;;;;7.10;100.00;99171.78;5001785;28;19921;-85
2021/03/11 05:56:11;;;;;;;;;;;;;;;7.13;100.00;99166.09;5015666;28;20269;-85
2021/03/11 05:58:37;;;;;;;;;;;;;;;7.16;100.00;99171.09;4988088;28;19921;-82
2021/03/11 06:01:03;;;;;;;;;;;;;;;7.18;100.00;99169.03;5007960;28;19917;-84
2021/03/11 06:03:32;;;;;;;;;;;;;;;7.23;100.00;99174.66;5004963;28;19917;-83
2021/03/11 06:05:58;;;;;;;;;;;;;;;7.27;100.00;99167.13;5005710;28;19925;-86
2021/03/11 06:08:25;;;;;;;;;;;;;;;7.31;100.00;99163.09;5023056;28;19932;-87
2021/03/11 06:10:55;;;;;;;;;;;;;;;7.33;100.00;99147.72;5017398;28;19931;-81
2021/03/11 06:13:26;;;;;;;;;;;;;;;7.39;100.00;99128.31;5015571;28;19922;-82
2021/03/11 06:16:00;;;;;;;;;;;;;;;7.45;100.00;99148.94;5005809;28;19925;-84
2021/03/11 06:18:25;;;;;;;;;;;;;;;7.47;100.00;99130.88;5019902;28;19933;-86
2021/03/11 06:20:51;;;;;;;;;;;;;;;7.54;100.00;99124.78;5020675;28;20303;-84
2021/03/11 06:23:16;;;;;;;;;;;;;;;7.57;100.00;99108.44;5004976;28;19921;-84
2021/03/11 06:25:41;;;;;;;;;;;;;;;7.59;100.00;99119.72;5023526;28;19925;-83
2021/03/11 06:28:08;;;;;;;;;;;;;;;7.63;100.00;99110.34;5003636;28;19948;-84
2021/03/11 06:30:34;;;;;;;;;;;;;;;7.66;100.00;99107.31;5024106;28;20353;-83
2021/03/11 06:33:00;;;;;;;;;;;;;;;7.68;100.00;99102.59;5001402;28;20003;-82
2021/03/11 06:35:26;;;;;;;;;;;;;;;7.72;100.00;99124.41;5028718;28;19925;-82
2021/03/11 06:37:51;;;;;;;;;;;;;;;7.74;100.00;99101.00;5021652;28;20380;-85
2021/03/11 06:40:24;;;;;;;;;;;;;;;7.76;100.00;99099.81;5018380;28;19925;-87
2021/03/11 06:42:50;;;;;;;;;;;;;;;7.78;100.00;99105.81;5019878;28;19918;-87
2021/03/11 06:45:26;;;;;;;;;;;;;;;7.80;100.00;99111.78;5025158;28;19931;-85
2021/03/11 06:47:52;;;;;;;;;;;;;;;7.82;100.00;99107.06;5024177;28;20399;-81
2021/03/11 06:50:17;;;;;;;;;;;;;;;7.82;100.00;99091.03;4997320;28;20009;-83
2021/03/11 06:53:02;;;;;;;;;;;;;;;7.84;100.00;99097.03;5000501;28;20021;-86
2021/03/11 06:55:27;;;;;;;;;;;;;;;7.86;100.00;99087.00;5004025;28;19926;-83
2021/03/11 06:57:53;;;;;;;;;;;;;;;7.87;100.00;99072.63;5001670;28;19917;-81
2021/03/11 07:00:22;;;;;;;;;;;;;;;7.92;100.00;99085.44;4997283;28;19923;-86
2021/03/11 07:02:52;;;;;;;;;;;;;;;7.94;100.00;99055.84;5028070;28;20359;-84
2021/03/11 07:05:18;;;;;;;;;;;;;;;8.00;100.00;99103.16;5006044;28;20363;-83
2021/03/11 07:07:43;;;;;;;;;;;;;;;8.02;100.00;99080.59;5028062;28;20016;-83
2021/03/11 07:10:21;;;;;;;;;;;;;;;8.03;100.00;99073.44;5004280;28;19917;-80
2021/03/11 07:12:50;;;;;;;;;;;;;;;8.03;100.00;99060.06;5006129;28;19934;-85
2021/03/11 07:15:16;;;;;;;;;;;;;;;8.03;100.00;99084.13;5006468;28;20350;-83
2021/03/11 07:17:41;;;;;;;;;;;;;;;8.04;100.00;99062.53;5016637;28;19925;-83
2021/03/11 07:20:07;;;;;;;;;;;;;;;8.05;100.00;99053.50;5006306;28;20008;-85
2021/03/11 07:22:32;;;;;;;;;;;;;;;8.06;100.00;99057.00;5038553;28;19917;-81
2021/03/11 07:24:57;;;;;;;;;;;;;;;8.05;100.00;99039.31;5021969;28;20011;-83
2021/03/11 07:27:23;;;;;;;;;;;;;;;8.05;100.00;99039.31;5019251;28;19918;-82
2021/03/11 07:30:01;;;;;;;;;;;;;;;8.03;100.00;99017.31;5029185;28;20327;-83
2021/03/11 07:32:26;;;;;;;;;;;;;;;8.02;100.00;99043.19;5012609;28;20026;-82
2021/03/11 07:34:52;;;;;;;;;;;;;;;8.03;100.00;99044.84;5026680;28;20388;-84
2021/03/11 07:37:17;;;;;;;;;;;;;;;8.04;100.00;99059.88;5031183;28;19960;-89
2021/03/11 07:39:44;;;;;;;;;;;;;;;8.05;100.00;99031.28;5028519;28;20315;-82
2021/03/11 07:42:10;;;;;;;;;;;;;;;8.06;100.00;99040.97;5012596;28;20368;-84
2021/03/11 07:44:35;;;;;;;;;;;;;;;8.05;100.00;99050.81;5007704;28;19922;-82
2021/03/11 07:47:01;;;;;;;;;;;;;;;8.05;100.00;99044.66;5010217;28;20005;-82
2021/03/11 07:49:27;;;;;;;;;;;;;;;8.05;100.00;99039.31;5017596;28;19928;-82
2021/03/11 07:51:53;;;;;;;;;;;;;;;8.05;100.00;99058.00;5022220;28;19983;-85
2021/03/11 07:54:18;;;;;;;;;;;;;;;8.08;100.00;99041.59;5017105;28;19929;-83
2021/03/11 07:56:44;;;;;;;;;;;;;;;8.06;100.00;99052.50;5027230;28;20347;-82
2021/03/11 07:59:09;;;;;;;;;;;;;;;8.08;100.00;99044.28;4997472;28;19925;-83
2021/03/11 08:01:43;;;;;;;;;;;;;;;8.11;100.00;99030.53;5015028;28;20347;-85
2021/03/11 08:04:11;;;;;;;;;;;;;;;8.19;100.00;99033.06;5004810;28;19987;-82
2021/03/11 08:06:36;;;;;;;;;;;;;;;8.29;100.00;99024.75;5008209;28;20494;-85
2021/03/11 08:09:01;;;;;;;;;;;;;;;8.39;100.00;99027.13;5003653;28;20055;-85
2021/03/11 08:11:30;;;;;;;;;;;;;;;8.44;100.00;99014.00;5020059;28;19964;-82
2021/03/11 08:14:14;;;;;;;;;;;;;;;8.46;100.00;98982.53;5022221;28;19921;-80
2021/03/11 08:16:40;;;;;;;;;;;;;;;8.50;100.00;98986.50;5039605;28;19925;-83
2021/03/11 08:19:05;;;;;;;;;;;;;;;8.58;100.00;98986.34;5039255;28;20403;-85
2021/03/11 08:21:33;;;;;;;;;;;;;;;8.63;100.00;98965.22;5005890;28;19917;-82
2021/03/11 08:23:59;;;;;;;;;;;;;;;8.73;100.00;98920.19;5020191;28;19946;-85
2021/03/11 08:26:41;;;;;;;;;;;;;;;8.80;100.00;98963.88;5024858;28;20419;-84
2021/03/11 08:29:15;;;;;;;;;;;;;;;8.87;100.00;98955.88;5024179;28;19949;-79
2021/03/11 08:31:41;;;;;;;;;;;;;;;8.90;100.00;98931.41;5028017;28;20006;-81
2021/03/11 08:34:06;;;;;;;;;;;;;;;8.99;100.00;98948.09;5031061;28;19960;-84
2021/03/11 08:36:36;;;;;;;;;;;;;;;9.06;100.00;98981.06;5010990;28;19921;-85
2021/03/11 08:39:03;;;;;;;;;;;;;;;9.10;100.00;98942.19;5031438;28;19917;-85
2021/03/11 08:41:31;;;;;;;;;;;;;;;9.17;100.00;98929.66;5024076;28;20272;-83
2021/03/11 08:43:58;;;;;;;;;;;;;;;9.24;100.00;98938.53;5026288;28;20407;-84
2021/03/11 08:46:24;;;;;;;;;;;;;;;9.34;100.00;98943.50;5042786;28;19983;-84
2021/03/11 08:48:50;;;;;;;;;;;;;;;9.43;100.00;98944.97;5022968;28;19980;-84
2021/03/11 08:51:18;;;;;;;;;;;;;;;9.50;100.00;98934.28;5024724;28;20268;-86
2021/03/11 08:53:47;;;;;;;;;;;;;;;9.54;100.00;98922.13;5016895;28;19932;-86
2021/03/11 08:56:13;;;;;;;;;;;;;;;9.58;100.00;98933.25;5021657;28;19917;-82
2021/03/11 08:58:49;;;;;;;;;;;;;;;9.61;100.00;98917.63;5024867;28;19924;-85
2021/03/11 09:01:33;;;;;;;;;;;;;;;9.65;100.00;98920.72;5022848;28;19917;-86
2021/03/11 09:03:59;;;;;;;;;;;;;;;9.68;100.00;98904.25;5018571;28;19921;-84
2021/03/11 09:06:44;;;;;;;;;;;;;;;9.72;100.00;98908.16;5000897;28;19929;-85
2021/03/11 09:09:10;;;;;;;;;;;;;;;9.80;100.00;98917.84;5000188;28;19961;-83
2021/03/11 09:11:35;;;;;;;;;;;;;;;9.85;99.85;98926.09;5027995;28;20389;-81
2021/03/11 09:14:07;;;;;;;;;;;;;;;9.90;99.07;98913.75;5025800;28;19917;-82
2021/03/11 09:16:32;;;;;;;;;;;;;;;9.96;99.20;98909.41;5017300;28;19925;-85
2021/03/11 09:18:58;;;;;;;;;;;;;;;10.02;98.99;98913.13;5019205;28;19925;-86
2021/03/11 09:21:33;;;;;;;;;;;;;;;10.09;98.56;98914.75;5013475;28;19928;-85
2021/03/11 09:23:58;;;;;;;;;;;;;;;10.17;97.34;98930.63;5014484;28;20290;-86
2021/03/11 09:26:28;;;;;;;;;;;;;;;10.27;91.26;98897.25;5024779;28;19922;-82
2021/03/11 09:28:53;;;;;;;;;;;;;;;10.35;90.05;98942.63;5021311;28;19924;-83
2021/03/11 09:31:26;;;;;;;;;;;;;;;10.40;90.10;98910.63;5003677;28;20623;-80
2021/03/11 09:33:52;;;;;;;;;;;;;;;10.44;90.81;98919.91;5020428;28;19924;-83
2021/03/11 09:36:17;;;;;;;;;;;;;;;10.49;91.11;98911.25;5040500;28;19975;-81
2021/03/11 09:38:43;;;;;;;;;;;;;;;10.57;89.28;98897.63;5023856;28;20016;-84
2021/03/11 09:41:09;;;;;;;;;;;;;;;10.66;89.06;98912.44;5020502;28;20179;-85
2021/03/11 09:43:36;;;;;;;;;;;;;;;10.80;86.05;98908.69;5003021;28;19924;-83
2021/03/11 09:46:10;;;;;;;;;;;;;;;10.96;83.76;98895.81;5023177;28;19929;-87
2021/03/11 09:48:40;;;;;;;;;;;;;;;11.14;79.24;98866.44;5023314;28;20342;-82
2021/03/11 09:51:07;;;;;;;;;;;;;;;11.31;80.13;98909.72;5020063;28;20341;-86
2021/03/11 09:53:44;;;;;;;;;;;;;;;11.42;78.90;98884.03;5016702;28;19925;-84
2021/03/11 09:56:19;;;;;;;;;;;;;;;11.45;77.38;98895.19;5022815;28;19917;-85
2021/03/11 09:58:46;;;;;;;;;;;;;;;11.46;74.94;98867.28;5033006;28;19949;-86
2021/03/11 10:01:18;;;;;;;;;;;;;;;11.49;74.36;98884.81;5025585;28;20019;-85
2021/03/11 10:03:44;;;;;;;;;;;;;;;11.53;75.85;98869.91;5027995;28;19917;-83
2021/03/11 10:06:14;;;;;;;;;;;;;;;11.64;74.25;98897.94;5010394;28;20350;-83
2021/03/11 10:08:40;;;;;;;;;;;;;;;11.67;73.35;98876.00;5028790;28;19917;-83
2021/03/11 10:11:06;;;;;;;;;;;;;;;11.63;72.09;98877.50;5029072;28;19961;-86
2021/03/11 10:13:36;;;;;;;;;;;;;;;11.54;72.27;98882.31;5025416;28;19917;-84
2021/03/11 10:16:02;;;;;;;;;;;;;;;11.45;69.75;98886.28;5026573;28;20407;-85
2021/03/11 10:18:27;;;;;;;;;;;;;;;11.43;70.24;98875.75;5038147;28;20012;-82
2021/03/11 10:21:06;;;;;;;;;;;;;;;11.39;69.38;98879.91;5011608;28;19960;-84
2021/03/11 10:23:32;;;;;;;;;;;;;;;11.39;70.70;98896.00;5008184;28;20287;-83
2021/03/11 10:26:10;;;;;;;;;;;;;;;11.36;69.59;98874.16;5026783;28;19944;-83
2021/03/11 10:28:35;;;;;;;;;;;;;;;11.37;70.46;98898.13;5015705;28;19917;-83
2021/03/11 10:31:04;;;;;;;;;;;;;;;11.35;69.62;98889.44;5013146;28;20273;-85
2021/03/11 10:33:29;;;;;;;;;;;;;;;11.33;68.79;98913.00;5017078;28;19917;-85
2021/03/11 10:35:54;;;;;;;;;;;;;;;11.31;66.99;98872.13;5024728;28;19928;-86
2021/03/11 10:38:21;;;;;;;;;;;;;;;11.31;66.29;98877.50;5039644;28;19917;-85
2021/03/11 10:40:48;;;;;;;;;;;;;;;11.35;66.83;98888.63;5022584;28;19944;-86
2021/03/11 10:43:23;;;;;;;;;;;;;;;11.40;65.29;98838.59;5026746;28;19921;-81
2021/03/11 10:45:48;;;;;;;;;;;;;;;11.46;64.46;98872.66;5020451;28;19971;-81
2021/03/11 10:48:14;;;;;;;;;;;;;;;11.46;64.12;98832.34;5025447;28;20363;-86
2021/03/11 10:50:41;;;;;;;;;;;;;;;11.43;64.90;98859.66;5023198;28;19921;-83
2021/03/11 10:53:06;;;;;;;;;;;;;;;11.38;66.31;98886.31;5028492;28;20017;-83
2021/03/11 10:55:33;;;;;;;;;;;;;;;11.35;67.79;98867.13;5009367;28;19979;-87
2021/03/11 10:57:59;;;;;;;;;;;;;;;11.26;67.73;98864.69;5007204;28;19924;-81
2021/03/11 11:00:28;;;;;;;;;;;;;;;11.19;68.84;98865.78;5009245;28;19921;-82
2021/03/11 11:02:54;;;;;;;;;;;;;;;11.16;67.48;98848.22;5015936;28;20375;-87
2021/03/11 11:05:20;;;;;;;;;;;;;;;11.11;70.01;98866.03;5029820;28;19940;-80
2021/03/11 11:07:45;;;;;;;;;;;;;;;11.12;67.59;98883.78;4996918;28;20397;-85
2021/03/11 11:10:10;;;;;;;;;;;;;;;11.15;66.87;98867.25;5032472;28;19924;-81
2021/03/11 11:12:36;;;;;;;;;;;;;;;11.17;66.13;98886.66;5029072;28;20219;-82
2021/03/11 11:15:02;;;;;;;;;;;;;;;11.15;67.72;98884.19;5009815;28;19988;-83
2021/03/11 11:17:28;;;;;;;;;;;;;;;11.13;66.36;98893.47;5011502;28;19965;-82
2021/03/11 11:19:53;;;;;;;;;;;;;;;11.14;66.61;98905.88;5021101;28;20382;-82
2021/03/11 11:22:18;;;;;;;;;;;;;;;11.14;65.99;98897.84;5046280;28;19921;-85
2021/03/11 11:24:44;;;;;;;;;;;;;;;11.15;66.62;98894.09;5029267;28;19928;-84
2021/03/11 11:27:10;;;;;;;;;;;;;;;11.14;67.49;98887.09;5024987;28;19959;-85
2021/03/11 11:29:36;;;;;;;;;;;;;;;11.16;68.01;98898.41;5028455;28;19917;-86
2021/03/11 11:32:01;;;;;;;;;;;;;;;11.18;67.61;98889.13;5017425;28;20390;-84
2021/03/11 11:34:26;;;;;;;;;;;;;;;11.15;68.39;98880.69;5034821;28;19921;-85
2021/03/11 11:36:52;;;;;;;;;;;;;;;11.13;67.27;98904.22;5029987;28;19917;-81
2021/03/11 11:39:17;;;;;;;;;;;;;;;11.11;67.06;98904.44;5031416;28;19948;-85
2021/03/11 11:41:44;;;;;;;;;;;;;;;11.06;67.06;98906.94;5010082;28;20181;-83
2021/03/11 11:44:09;;;;;;;;;;;;;;;11.03;67.87;98883.22;5029973;28;20306;-86
2021/03/11 11:46:35;;;;;;;;;;;;;;;10.91;71.57;98917.13;5028354;28;19925;-87
2021/03/11 11:49:00;;;;;;;;;;;;;;;10.72;71.79;98935.75;5028164;28;20283;-84
2021/03/11 11:51:26;;;;;;;;;;;;;;;10.56;74.74;98955.81;5028384;28;20054;-80
2021/03/11 11:53:51;;;;;;;;;;;;;;;10.32;77.74;98910.84;5028484;28;21217;-87
2021/03/11 11:56:17;;;;;;;;;;;;;;;10.14;79.20;98924.88;5019703;28;19941;-83
2021/03/11 11:58:44;;;;;;;;;;;;;;;10.07;80.41;98940.97;5004864;28;20008;-80
2021/03/11 12:01:10;;;;;;;;;;;;;;;10.00;82.40;98940.13;5010413;28;19924;-87
2021/03/11 12:03:35;;;;;;;;;;;;;;;9.96;83.40;98922.81;5015380;28;19990;-81
2021/03/11 12:06:00;;;;;;;;;;;;;;;10.01;80.75;98903.41;5010059;28;19973;-83
2021/03/11 12:08:26;;;;;;;;;;;;;;;10.11;79.40;98942.19;5028550;28;19921;-81
2021/03/11 12:10:51;;;;;;;;;;;;;;;10.21;77.33;98928.34;5028671;28;19921;-84
2021/03/11 12:13:17;;;;;;;;;;;;;;;10.31;75.16;98936.03;5005797;28;19932;-85
2021/03/11 12:15:42;;;;;;;;;;;;;;;10.37;73.83;98962.81;5011751;28;20020;-84
2021/03/11 12:18:07;;;;;;;;;;;;;;;10.45;73.94;98939.53;4999977;28;19924;-84
2021/03/11 12:20:33;;;;;;;;;;;;;;;10.49;74.57;98952.28;5011713;28;19927;-83
2021/03/11 12:22:59;;;;;;;;;;;;;;;10.53;73.67;98961.59;5029643;28;19917;-81
2021/03/11 12:25:24;;;;;;;;;;;;;;;10.63;70.60;98960.31;5009388;28;19932;-80
2021/03/11 12:27:49;;;;;;;;;;;;;;;10.74;69.25;98949.78;5006191;28;19917;-87
2021/03/11 12:30:15;;;;;;;;;;;;;;;10.76;69.44;98954.91;5014814;28;19975;-83
2021/03/11 12:32:40;;;;;;;;;;;;;;;10.79;69.00;98998.28;5028947;28;19917;-87
2021/03/11 12:35:06;;;;;;;;;;;;;;;10.80;69.17;98985.69;5025125;28;20403;-82
2021/03/11 12:37:31;;;;;;;;;;;;;;;10.84;68.55;99027.13;5029748;28;19967;-84
2021/03/11 12:39:56;;;;;;;;;;;;;;;10.89;66.66;98995.16;5024277;28;20390;-85
2021/03/11 12:42:21;;;;;;;;;;;;;;;10.90;67.09;98977.19;5013077;28;19969;-85
2021/03/11 12:44:47;;;;;;;;;;;;;;;10.91;66.76;99006.50;4995884;28;19936;-84
2021/03/11 12:47:15;;;;;;;;;;;;;;;10.92;66.79;99018.06;5006621;28;19933;-87